Time;durP1;ratioP1;P1;durP2;ratioP2;P2;SDS_P1;SDS_P2;PMS_P1;PMS_P2;Temp;Humidity;BMP_temperature;BMP_pressure;BME280_temperature;BME280_humidity;BME280_pressure;Samples;Min_cycle;Max_cycle;Signal;HPM_P1;HPM_P2
2022/03/10 00:01:29;;;;;;;34.97;22.90;;;7.20;99.90;;;;;;5075182;28;20214;-76
2022/03/10 00:03:57;;;;;;;37.00;23.80;;;7.20;99.90;;;;;;5075615;28;20317;-75
2022/03/10 00:06:24;;;;;;;35.80;22.87;;;7.20;99.90;;;;;;5075666;28;20648;-76
2022/03/10 00:08:50;;;;;;;36.97;22.53;;;7.30;99.90;;;;;;5076310;28;20210;-76
2022/03/10 00:11:17;;;;;;;36.83;22.90;;;7.20;99.90;;;;;;5075565;28;20206;-78
2022/03/10 00:13:44;;;;;;;38.00;25.48;;;7.20;99.90;;;;;;5073573;28;20549;-81
2022/03/10 00:16:13;;;;;;;36.20;23.47;;;7.20;99.90;;;;;;5055594;28;20670;-77
2022/03/10 00:18:40;;;;;;;36.53;23.73;;;7.20;99.90;;;;;;5055301;28;20199;-78
2022/03/10 00:21:06;;;;;;;35.57;23.77;;;7.10;99.90;;;;;;5055015;28;20286;-75
2022/03/10 00:23:33;;;;;;;37.13;23.70;;;7.20;99.90;;;;;;5054656;28;20195;-76
2022/03/10 00:26:00;;;;;;;33.90;23.57;;;7.10;99.90;;;;;;5055032;28;20230;-75
2022/03/10 00:28:27;;;;;;;38.43;23.67;;;7.00;99.90;;;;;;5055412;28;20321;-75
2022/03/10 00:30:54;;;;;;;38.47;24.50;;;7.00;99.90;;;;;;5055127;28;20210;-76
2022/03/10 00:33:23;;;;;;;35.43;22.90;;;7.00;99.90;;;;;;5055182;28;20234;-82
2022/03/10 00:35:50;;;;;;;39.97;24.00;;;7.00;99.90;;;;;;5054981;28;20295;-75
2022/03/10 00:38:17;;;;;;;38.17;27.15;;;7.00;99.90;;;;;;5054490;28;20440;-77
2022/03/10 00:40:44;;;;;;;34.23;23.27;;;7.00;99.90;;;;;;5054901;28;20195;-76
2022/03/10 00:43:12;;;;;;;36.80;22.33;;;7.10;99.90;;;;;;5054896;28;20571;-75
2022/03/10 00:45:39;;;;;;;38.70;22.40;;;7.00;99.90;;;;;;5054956;28;20207;-75
2022/03/10 00:48:06;;;;;;;38.37;21.70;;;7.00;99.90;;;;;;5054957;28;20207;-80
2022/03/10 00:50:34;;;;;;;35.87;22.33;;;7.00;99.90;;;;;;5054883;28;20190;-77
2022/03/10 00:53:01;;;;;;;33.70;22.07;;;6.90;99.90;;;;;;5054718;28;20241;-75
2022/03/10 00:55:29;;;;;;;33.80;22.30;;;6.90;99.90;;;;;;5054648;28;20685;-76
2022/03/10 00:57:56;;;;;;;35.80;22.40;;;6.90;99.90;;;;;;5054787;28;20218;-75
2022/03/10 01:00:24;;;;;;;37.53;22.77;;;6.90;99.90;;;;;;5054700;28;20661;-77
2022/03/10 01:02:51;;;;;;;39.10;26.30;;;6.80;99.90;;;;;;5054182;28;20742;-77
2022/03/10 01:05:18;;;;;;;41.17;24.00;;;6.80;99.90;;;;;;5054944;28;20207;-78
2022/03/10 01:07:46;;;;;;;39.83;23.47;;;6.90;99.90;;;;;;5054889;28;20206;-76
2022/03/10 01:10:14;;;;;;;33.90;21.50;;;6.90;99.90;;;;;;5054442;28;20574;-76
2022/03/10 01:12:42;;;;;;;33.80;22.27;;;6.90;99.90;;;;;;5054458;28;20404;-76
2022/03/10 01:15:10;;;;;;;35.70;22.63;;;6.90;99.90;;;;;;5054534;28;20226;-77
2022/03/10 01:17:37;;;;;;;36.23;22.83;;;6.80;99.90;;;;;;5054828;28;20206;-75
2022/03/10 01:20:04;;;;;;;32.53;21.93;;;6.70;99.90;;;;;;5064811;28;20200;-78
2022/03/10 01:22:31;;;;;;;36.23;22.17;;;6.80;99.90;;;;;;5074711;28;20197;-75
2022/03/10 01:25:00;;;;;;;37.97;22.67;;;6.80;99.90;;;;;;5073981;28;20197;-75
2022/03/10 01:27:26;;;;;;;34.58;26.20;;;6.70;99.90;;;;;;5073602;28;20445;-75
2022/03/10 01:29:53;;;;;;;34.10;22.47;;;6.80;99.90;;;;;;5074952;28;20209;-76
2022/03/10 01:32:20;;;;;;;35.43;22.03;;;6.90;99.90;;;;;;5074824;28;20217;-75
2022/03/10 01:34:47;;;;;;;33.50;22.60;;;6.90;99.90;;;;;;5073773;28;20236;-84
2022/03/10 01:37:14;;;;;;;39.73;22.33;;;6.80;99.90;;;;;;5074523;28;20202;-75
2022/03/10 01:39:41;;;;;;;34.57;23.07;;;6.80;99.90;;;;;;5073643;28;20201;-76
2022/03/10 01:42:09;;;;;;;31.87;21.53;;;6.80;99.90;;;;;;5074237;28;20660;-75
2022/03/10 01:44:37;;;;;;;31.13;21.03;;;6.80;99.90;;;;;;5074348;28;20289;-75
2022/03/10 01:47:05;;;;;;;31.70;22.37;;;6.70;99.90;;;;;;5074674;28;20213;-74
2022/03/10 01:49:34;;;;;;;30.87;21.30;;;6.70;99.90;;;;;;5074804;28;20202;-75
2022/03/10 01:52:02;;;;;;;36.88;26.73;;;6.70;99.90;;;;;;5072891;28;20423;-79
2022/03/10 01:54:29;;;;;;;34.77;23.27;;;6.70;99.90;;;;;;5073568;28;20599;-75
2022/03/10 01:56:56;;;;;;;35.43;21.63;;;6.70;99.90;;;;;;5073547;28;20209;-75
2022/03/10 01:59:24;;;;;;;34.23;22.53;;;6.70;99.90;;;;;;5073747;28;20202;-75
2022/03/10 02:01:51;;;;;;;33.70;21.43;;;6.70;99.90;;;;;;5073498;28;20216;-75
2022/03/10 02:04:18;;;;;;;34.63;22.10;;;6.60;99.90;;;;;;5073642;28;20665;-82
2022/03/10 02:06:45;;;;;;;36.53;22.00;;;6.60;99.90;;;;;;5074234;28;20221;-82
2022/03/10 02:11:56;;;;;;;33.17;21.90;;;6.60;99.90;;;;;;5073555;28;20201;-75
2022/03/10 02:17:21;;;;;;;34.33;26.75;;;6.50;99.90;;;;;;5071930;28;20500;-79
2022/03/10 02:19:49;;;;;;;31.33;21.87;;;6.60;99.90;;;;;;5072562;28;20789;-75
2022/03/10 02:22:18;;;;;;;33.23;21.53;;;6.60;99.90;;;;;;5069538;28;20202;-74
2022/03/10 02:24:46;;;;;;;31.43;21.10;;;6.60;99.90;;;;;;5073060;28;20676;-75
2022/03/10 02:27:14;;;;;;;32.00;21.50;;;6.60;99.90;;;;;;5071635;28;20206;-75
2022/03/10 02:29:43;;;;;;;34.10;21.97;;;6.50;99.90;;;;;;5073142;28;20330;-76
2022/03/10 02:32:10;;;;;;;32.70;21.47;;;6.50;99.90;;;;;;5074031;28;20202;-76
2022/03/10 02:34:37;;;;;;;31.60;20.43;;;6.40;99.90;;;;;;5073420;28;20350;-75
2022/03/10 02:37:04;;;;;;;30.20;21.30;;;6.30;99.90;;;;;;5073449;28;20202;-75
2022/03/10 02:39:32;;;;;;;33.40;21.23;;;6.30;99.90;;;;;;5072845;28;20561;-76
2022/03/10 02:41:59;;;;;;;28.83;20.60;;;6.40;99.90;;;;;;5073358;28;20209;-75
2022/03/10 02:44:26;;;;;;;35.00;21.77;;;6.30;99.90;;;;;;5073061;28;20628;-75
2022/03/10 02:46:53;;;;;;;29.80;20.63;;;6.20;99.90;;;;;;5073015;28;20202;-77
2022/03/10 02:49:20;;;;;;;38.23;21.07;;;6.20;99.90;;;;;;5072898;28;20205;-75
2022/03/10 02:51:47;;;;;;;32.67;21.13;;;6.20;99.90;;;;;;5072488;28;20240;-75
2022/03/10 02:54:14;;;;;;;32.80;20.47;;;6.30;99.90;;;;;;5072607;28;20244;-75
2022/03/10 02:56:42;;;;;;;30.83;19.83;;;6.30;99.90;;;;;;5073231;28;20663;-75
2022/03/10 02:59:10;;;;;;;32.43;20.77;;;6.20;99.90;;;;;;5072918;28;20741;-77
2022/03/10 03:01:37;;;;;;;31.57;20.73;;;6.20;99.90;;;;;;5073965;28;20202;-84
2022/03/10 03:04:04;;;;;;;31.40;20.60;;;6.10;99.90;;;;;;5073938;28;20559;-84
2022/03/10 03:06:33;;;;;;;34.63;22.03;;;6.10;99.90;;;;;;5073077;28;20264;-84
2022/03/10 03:09:00;;;;;;;31.07;21.30;;;6.10;99.90;;;;;;5074858;28;20193;-79
2022/03/10 03:11:27;;;;;;;33.90;21.97;;;6.20;99.90;;;;;;5075269;28;20193;-77
2022/03/10 03:13:56;;;;;;;29.93;21.03;;;6.10;99.90;;;;;;5075972;28;20498;-76
2022/03/10 03:16:24;;;;;;;33.83;21.03;;;6.20;99.90;;;;;;5075310;28;20202;-77
2022/03/10 03:18:52;;;;;;;34.27;21.70;;;6.10;99.90;;;;;;5074118;28;20450;-77
2022/03/10 03:21:20;;;;;;;30.87;20.93;;;6.10;99.90;;;;;;5074443;28;20206;-76
2022/03/10 03:23:48;;;;;;;35.47;21.50;;;6.10;99.90;;;;;;5074890;28;20197;-81
2022/03/10 03:26:15;;;;;;;32.20;19.87;;;6.10;99.90;;;;;;5074428;28;20213;-76
2022/03/10 03:28:43;;;;;;;31.38;21.30;;;6.10;99.90;;;;;;5073381;28;20838;-77
2022/03/10 03:31:12;;;;;;;32.17;21.37;;;6.10;99.90;;;;;;5073746;28;20190;-75
2022/03/10 03:33:39;;;;;;;30.83;20.93;;;6.10;99.90;;;;;;5073695;28;20237;-75
2022/03/10 03:36:07;;;;;;;32.37;21.57;;;6.10;99.90;;;;;;5073119;28;20529;-74
2022/03/10 03:38:34;;;;;;;33.00;21.13;;;5.90;99.90;;;;;;5073480;28;20500;-78
2022/03/10 03:41:01;;;;;;;34.60;22.00;;;6.00;99.90;;;;;;5073659;28;20446;-79
2022/03/10 03:43:29;;;;;;;29.73;20.63;;;5.90;99.90;;;;;;5073739;28;20665;-75
2022/03/10 03:45:56;;;;;;;34.30;22.13;;;5.90;99.90;;;;;;5074293;28;20442;-76
2022/03/10 03:48:25;;;;;;;30.03;21.47;;;5.90;99.90;;;;;;5073576;28;20941;-75
2022/03/10 03:50:53;;;;;;;30.50;20.90;;;5.90;99.90;;;;;;5066856;28;20819;-76
2022/03/10 03:53:20;;;;;;;32.43;20.83;;;5.80;99.90;;;;;;5069096;28;20214;-75
2022/03/10 03:55:47;;;;;;;28.83;20.27;;;5.90;99.90;;;;;;5073326;28;20198;-75
2022/03/10 03:58:14;;;;;;;31.00;20.00;;;5.90;99.90;;;;;;5075307;28;20462;-76
2022/03/10 04:00:40;;;;;;;33.33;20.87;;;5.90;99.90;;;;;;5075098;28;20941;-77
2022/03/10 04:03:09;;;;;;;29.80;20.67;;;5.80;99.90;;;;;;5076470;28;20458;-76
2022/03/10 04:05:39;;;;;;;33.87;21.10;;;5.90;99.90;;;;;;5073514;28;20965;-76
2022/03/10 04:08:07;;;;;;;29.60;21.20;;;5.80;99.90;;;;;;5054683;28;20501;-75
2022/03/10 04:10:36;;;;;;;35.20;21.60;;;5.80;99.90;;;;;;5054485;28;20511;-75
2022/03/10 04:13:03;;;;;;;31.70;21.33;;;5.80;99.90;;;;;;5055810;28;20439;-75
2022/03/10 04:15:31;;;;;;;30.93;20.70;;;5.80;99.90;;;;;;5055316;28;21009;-80
2022/03/10 04:17:58;;;;;;;32.00;20.77;;;5.70;99.90;;;;;;5055437;28;20535;-85
2022/03/10 04:20:25;;;;;;;28.67;21.10;;;5.70;99.90;;;;;;5055539;28;20447;-78
2022/03/10 04:22:53;;;;;;;34.67;21.47;;;5.70;99.90;;;;;;5055490;28;20443;-78
2022/03/10 04:25:20;;;;;;;33.70;20.67;;;5.70;99.90;;;;;;5055193;28;20440;-79
2022/03/10 04:27:49;;;;;;;33.23;21.20;;;5.70;99.90;;;;;;5055158;28;20447;-77
2022/03/10 04:30:17;;;;;;;33.30;20.10;;;5.60;99.90;;;;;;5055397;28;20539;-85
2022/03/10 04:32:46;;;;;;;30.07;20.60;;;5.70;99.90;;;;;;5054972;28;20459;-76
2022/03/10 04:35:15;;;;;;;28.83;21.00;;;5.70;99.90;;;;;;5055547;28;20693;-76
2022/03/10 04:37:42;;;;;;;31.70;21.33;;;5.70;99.90;;;;;;5055567;28;20546;-75
2022/03/10 04:40:12;;;;;;;31.60;20.10;;;5.70;99.90;;;;;;5054938;28;20450;-80
2022/03/10 04:42:41;;;;;;;30.60;20.63;;;5.80;99.90;;;;;;5055316;28;20432;-77
2022/03/10 04:45:09;;;;;;;31.10;20.40;;;5.80;99.90;;;;;;5054904;28;20211;-79
2022/03/10 04:47:37;;;;;;;31.00;20.17;;;5.80;99.90;;;;;;5054873;28;20453;-74
2022/03/10 04:50:05;;;;;;;33.97;20.27;;;5.80;99.90;;;;;;5055200;28;20467;-77
2022/03/10 04:52:32;;;;;;;32.67;21.13;;;5.80;99.90;;;;;;5054703;28;20502;-75
2022/03/10 04:55:00;;;;;;;32.63;20.60;;;5.70;99.90;;;;;;5055516;28;20478;-81
2022/03/10 04:57:34;;;;;;;29.63;20.60;;;5.80;99.90;;;;;;5054593;28;20436;-80
2022/03/10 05:00:05;;;;;;;30.87;20.20;;;5.80;99.90;;;;;;5055036;28;20446;-81
2022/03/10 05:02:32;;;;;;;40.37;21.67;;;5.80;99.90;;;;;;5074903;28;20506;-85
2022/03/10 05:04:58;;;;;;;33.23;20.37;;;5.70;99.90;;;;;;5074860;28;20819;-77
2022/03/10 05:07:25;;;;;;;30.30;20.33;;;5.80;99.90;;;;;;5074543;28;20470;-78
2022/03/10 05:09:52;;;;;;;36.13;21.43;;;5.70;99.90;;;;;;5074736;28;20450;-78
2022/03/10 05:12:21;;;;;;;35.03;20.73;;;5.60;99.90;;;;;;5074999;28;20190;-80
2022/03/10 05:14:49;;;;;;;31.77;20.57;;;5.70;99.90;;;;;;5074838;28;20849;-83
2022/03/10 05:17:16;;;;;;;29.73;19.83;;;5.70;99.90;;;;;;5074038;28;20438;-76
2022/03/10 05:19:43;;;;;;;38.60;21.07;;;5.70;99.90;;;;;;5074046;28;20209;-76
2022/03/10 05:22:10;;;;;;;30.37;21.13;;;5.50;99.90;;;;;;5074260;28;20544;-78
2022/03/10 05:24:37;;;;;;;34.77;22.03;;;5.60;99.90;;;;;;5074072;28;20467;-77
2022/03/10 05:27:04;;;;;;;35.07;20.13;;;5.60;99.90;;;;;;5074207;28;20548;-85
2022/03/10 05:29:31;;;;;;;32.13;20.70;;;5.60;99.90;;;;;;5074741;28;20562;-87
2022/03/10 05:31:59;;;;;;;33.47;20.63;;;5.60;99.90;;;;;;5074172;28;20438;-78
2022/03/10 05:34:26;;;;;;;33.08;26.15;;;5.50;99.90;;;;;;5073444;28;20467;-81
2022/03/10 05:36:53;;;;;;;28.67;21.47;;;5.60;99.90;;;;;;5074216;28;20193;-78
2022/03/10 05:39:19;;;;;;;32.10;20.70;;;5.70;99.90;;;;;;5074128;28;20210;-82
2022/03/10 05:41:46;;;;;;;31.70;19.90;;;5.80;99.90;;;;;;5073915;28;20633;-87
2022/03/10 05:44:13;;;;;;;33.57;21.13;;;5.60;99.90;;;;;;5074145;28;20201;-86
2022/03/10 05:46:41;;;;;;;34.77;21.20;;;5.60;99.90;;;;;;5073671;28;20216;-83
2022/03/10 05:49:10;;;;;;;33.43;21.20;;;5.60;99.90;;;;;;5073553;28;20447;-77
2022/03/10 05:51:37;;;;;;;32.07;20.70;;;5.60;99.90;;;;;;5073428;28;20450;-80
2022/03/10 05:54:04;;;;;;;31.27;20.20;;;5.50;99.90;;;;;;5073372;28;20443;-77
2022/03/10 05:56:31;;;;;;;31.57;20.13;;;5.60;99.90;;;;;;5074004;28;20435;-78
2022/03/10 05:58:58;;;;;;;30.83;19.97;;;5.60;99.90;;;;;;5073549;28;20443;-77
2022/03/10 06:01:25;;;;;;;32.93;19.57;;;5.60;99.90;;;;;;5067785;28;20455;-83
2022/03/10 06:03:52;;;;;;;27.90;19.90;;;5.60;99.90;;;;;;5072728;28;20461;-76
2022/03/10 06:06:21;;;;;;;28.77;19.00;;;5.60;99.90;;;;;;5072297;28;20511;-85
2022/03/10 06:08:48;;;;;;;27.40;19.40;;;5.60;99.90;;;;;;5073161;28;20446;-78
2022/03/10 06:11:15;;;;;;;28.77;20.20;;;5.70;99.90;;;;;;5073804;28;20465;-79
2022/03/10 06:13:42;;;;;;;30.47;19.93;;;5.60;99.90;;;;;;5073382;28;20459;-77
2022/03/10 06:16:08;;;;;;;28.33;18.77;;;5.60;99.90;;;;;;5072642;28;20501;-81
2022/03/10 06:18:35;;;;;;;26.40;19.17;;;5.70;99.90;;;;;;5073060;28;20980;-80
2022/03/10 06:21:02;;;;;;;29.90;20.50;;;5.40;99.90;;;;;;5072775;28;20454;-82
2022/03/10 06:23:30;;;;;;;27.20;19.37;;;5.50;99.90;;;;;;5073544;28;20435;-78
2022/03/10 06:25:57;;;;;;;33.57;20.50;;;5.50;99.90;;;;;;5073500;28;20513;-77
2022/03/10 06:28:24;;;;;;;31.10;19.80;;;5.50;99.90;;;;;;5072666;28;20457;-80
2022/03/10 06:30:51;;;;;;;26.87;19.13;;;5.60;99.90;;;;;;5072990;28;20446;-79
2022/03/10 06:33:18;;;;;;;28.90;19.67;;;5.70;99.90;;;;;;5072427;28;20201;-76
2022/03/10 06:35:46;;;;;;;28.10;19.23;;;5.70;99.90;;;;;;5072775;28;20490;-76
2022/03/10 06:38:12;;;;;;;34.90;20.73;;;5.70;99.90;;;;;;5073065;28;20450;-79
2022/03/10 06:40:41;;;;;;;32.07;19.03;;;5.80;99.90;;;;;;5072664;28;20823;-77
2022/03/10 06:43:09;;;;;;;28.27;19.17;;;5.80;99.90;;;;;;5072624;28;20442;-77
2022/03/10 06:45:36;;;;;;;30.00;19.57;;;5.80;99.90;;;;;;5072834;28;20794;-78
2022/03/10 06:48:03;;;;;;;27.40;19.37;;;5.90;99.90;;;;;;5072683;28;20301;-76
2022/03/10 06:50:31;;;;;;;26.83;19.00;;;5.90;99.90;;;;;;5073036;28;20209;-77
2022/03/10 06:52:58;;;;;;;36.17;22.63;;;6.00;99.90;;;;;;5072855;28;20461;-76
2022/03/10 06:55:25;;;;;;;32.53;19.67;;;6.00;99.90;;;;;;5073576;28;20232;-80
2022/03/10 06:57:55;;;;;;;35.07;19.50;;;6.20;99.90;;;;;;5073138;28;20312;-78
2022/03/10 07:00:23;;;;;;;30.43;18.03;;;6.10;99.90;;;;;;5072806;28;20524;-82
2022/03/10 07:02:52;;;;;;;28.60;19.87;;;6.10;99.90;;;;;;5072990;28;20465;-79
2022/03/10 07:05:19;;;;;;;34.30;20.47;;;6.10;99.90;;;;;;5054559;28;20277;-80
2022/03/10 07:07:46;;;;;;;34.50;19.73;;;6.10;99.90;;;;;;5053004;28;20456;-79
2022/03/10 07:10:13;;;;;;;36.03;20.60;;;6.10;99.90;;;;;;5053060;28;20210;-80
2022/03/10 07:12:41;;;;;;;31.77;20.03;;;6.20;99.90;;;;;;5056147;28;20656;-77
2022/03/10 07:15:11;;;;;;;28.67;19.17;;;6.20;99.90;;;;;;5072433;28;20521;-81
2022/03/10 07:17:38;;;;;;;27.67;19.87;;;6.30;99.90;;;;;;5073533;28;20208;-78
2022/03/10 07:20:07;;;;;;;31.77;20.90;;;6.30;99.90;;;;;;5073513;28;20216;-83
2022/03/10 07:22:34;;;;;;;33.50;19.77;;;6.30;99.90;;;;;;5071617;28;20269;-75
2022/03/10 07:25:03;;;;;;;29.00;19.83;;;6.40;99.90;;;;;;5072545;28;20190;-77
2022/03/10 07:27:29;;;;;;;30.57;20.10;;;6.30;99.90;;;;;;5072183;28;20568;-77
2022/03/10 07:29:56;;;;;;;30.53;20.00;;;6.40;99.90;;;;;;5073256;28;20308;-78
2022/03/10 07:32:26;;;;;;;34.27;20.43;;;6.50;99.90;;;;;;5073861;28;20217;-82
2022/03/10 07:34:53;;;;;;;27.17;18.80;;;6.50;99.90;;;;;;5077177;28;20225;-78
2022/03/10 07:37:20;;;;;;;31.07;19.77;;;6.70;99.90;;;;;;5076963;28;20206;-80
2022/03/10 07:39:47;;;;;;;29.97;19.73;;;6.70;99.90;;;;;;5076318;28;20297;-78
2022/03/10 07:42:15;;;;;;;28.03;18.97;;;6.70;99.90;;;;;;5075601;28;20201;-78
2022/03/10 07:44:42;;;;;;;29.20;18.90;;;6.80;99.90;;;;;;5076261;28;20199;-77
2022/03/10 07:47:09;;;;;;;26.43;18.47;;;6.90;99.90;;;;;;5076760;28;20216;-78
2022/03/10 07:49:37;;;;;;;32.03;19.53;;;7.00;99.90;;;;;;5076037;28;20649;-75
2022/03/10 07:52:06;;;;;;;28.77;19.37;;;7.10;99.90;;;;;;5076023;28;20699;-78
2022/03/10 07:54:33;;;;;;;27.77;19.17;;;7.20;99.90;;;;;;5076341;28;20626;-85
2022/03/10 07:57:00;;;;;;;28.63;18.77;;;7.30;99.90;;;;;;5076105;28;20265;-80
2022/03/10 07:59:27;;;;;;;28.07;18.67;;;7.30;99.90;;;;;;5077526;28;20194;-80
2022/03/10 08:01:55;;;;;;;27.83;18.90;;;7.60;99.90;;;;;;5077368;28;20202;-79
2022/03/10 08:04:22;;;;;;;25.20;18.53;;;7.60;99.90;;;;;;5074789;28;20672;-80
2022/03/10 08:06:51;;;;;;;28.30;18.73;;;7.70;99.90;;;;;;5057995;28;20206;-87
2022/03/10 08:09:18;;;;;;;24.80;18.83;;;7.70;99.90;;;;;;5065922;28;20217;-81
2022/03/10 08:11:45;;;;;;;31.20;18.63;;;7.80;99.90;;;;;;5077772;28;20542;-82
2022/03/10 08:14:11;;;;;;;29.77;18.77;;;8.00;99.90;;;;;;5077262;28;20241;-82
2022/03/10 08:16:38;;;;;;;31.70;19.33;;;8.00;99.90;;;;;;5076827;28;20237;-89
2022/03/10 08:19:05;;;;;;;31.43;19.00;;;8.20;99.90;;;;;;5077426;28;20213;-86
2022/03/10 08:21:34;;;;;;;29.53;18.53;;;8.20;99.90;;;;;;5076727;28;20198;-78
2022/03/10 08:24:05;;;;;;;30.93;19.70;;;8.40;99.90;;;;;;5076962;28;20536;-85
2022/03/10 08:26:32;;;;;;;33.17;19.97;;;8.60;99.90;;;;;;5075555;28;20556;-81
2022/03/10 08:29:00;;;;;;;33.72;23.88;;;8.70;99.90;;;;;;5074385;28;20899;-84
2022/03/10 08:31:27;;;;;;;31.07;20.60;;;8.90;99.90;;;;;;5076200;28;20194;-87
2022/03/10 08:34:00;;;;;;;28.93;18.33;;;9.00;99.90;;;;;;5076288;28;20572;-85
2022/03/10 08:36:32;;;;;;;26.67;18.70;;;9.00;99.90;;;;;;5075539;28;20692;-83
2022/03/10 08:38:59;;;;;;;34.57;20.30;;;9.10;99.90;;;;;;5075000;28;20551;-77
2022/03/10 08:41:27;;;;;;;28.53;19.63;;;9.20;99.90;;;;;;5075747;28;20190;-78
2022/03/10 08:43:54;;;;;;;28.20;19.53;;;9.30;99.90;;;;;;5075554;28;20194;-77
2022/03/10 08:46:21;;;;;;;25.70;18.63;;;9.30;99.90;;;;;;5075517;28;20197;-85
2022/03/10 08:48:48;;;;;;;30.23;17.50;;;9.50;99.90;;;;;;5075438;28;20198;-80
2022/03/10 08:51:15;;;;;;;29.50;17.93;;;9.60;99.90;;;;;;5074644;28;20206;-80
2022/03/10 08:53:41;;;;;;;31.97;19.00;;;9.60;99.90;;;;;;5074708;28;20201;-84
2022/03/10 08:56:09;;;;;;;30.43;18.70;;;9.80;99.90;;;;;;5074966;28;20225;-87
2022/03/10 08:58:37;;;;;;;28.53;19.73;;;9.90;99.90;;;;;;5074841;28;20554;-86
2022/03/10 09:01:04;;;;;;;29.87;18.57;;;10.00;99.90;;;;;;5074843;28;20231;-85
2022/03/10 09:03:31;;;;;;;28.20;17.77;;;10.20;99.90;;;;;;5074555;28;20255;-78
2022/03/10 09:05:58;;;;;;;27.63;17.90;;;10.30;99.90;;;;;;5074612;28;20205;-80
2022/03/10 09:08:25;;;;;;;24.23;17.83;;;10.40;99.90;;;;;;5074696;28;20206;-83
2022/03/10 09:10:52;;;;;;;26.70;19.33;;;10.50;99.90;;;;;;5074020;28;20198;-77
2022/03/10 09:13:19;;;;;;;24.73;18.73;;;10.60;99.90;;;;;;5074159;28;20293;-77
2022/03/10 09:15:48;;;;;;;28.40;18.23;;;10.80;99.90;;;;;;5074390;28;20224;-76
2022/03/10 09:18:17;;;;;;;31.47;19.13;;;11.10;99.90;;;;;;5074495;28;20190;-79
2022/03/10 09:20:44;;;;;;;32.80;19.37;;;11.20;99.90;;;;;;5074598;28;20201;-77
2022/03/10 09:23:10;;;;;;;27.20;18.27;;;11.30;99.90;;;;;;5074302;28;20216;-77
2022/03/10 09:25:38;;;;;;;24.17;17.77;;;11.40;99.90;;;;;;5079813;28;20210;-75
2022/03/10 09:28:05;;;;;;;24.30;17.70;;;11.40;99.90;;;;;;5092387;28;20190;-78
2022/03/10 09:30:33;;;;;;;25.27;17.73;;;11.50;99.90;;;;;;5088886;28;20629;-78
2022/03/10 09:33:01;;;;;;;26.20;17.23;;;11.70;99.90;;;;;;5089085;28;20213;-78
2022/03/10 09:35:29;;;;;;;28.37;17.30;;;11.70;99.90;;;;;;5079673;28;20229;-78
2022/03/10 09:37:56;;;;;;;24.37;17.43;;;11.80;99.90;;;;;;5074165;28;20208;-86
2022/03/10 09:40:24;;;;;;;24.40;17.47;;;11.70;99.90;;;;;;5074070;28;20259;-79
2022/03/10 09:42:51;;;;;;;23.53;17.23;;;11.60;99.90;;;;;;5074309;28;20586;-75
2022/03/10 09:45:19;;;;;;;25.53;16.97;;;11.80;99.90;;;;;;5074074;28;20673;-76
2022/03/10 09:47:47;;;;;;;24.57;16.93;;;12.00;99.90;;;;;;5076689;28;20198;-76
2022/03/10 09:50:17;;;;;;;23.90;16.50;;;12.10;99.90;;;;;;5061863;28;20218;-79
2022/03/10 09:52:45;;;;;;;20.17;16.40;;;12.20;99.90;;;;;;5053216;28;20214;-76
2022/03/10 09:55:13;;;;;;;24.20;17.27;;;12.30;99.90;;;;;;5052879;28;20630;-75
2022/03/10 09:57:44;;;;;;;26.70;17.10;;;12.50;99.90;;;;;;5057512;28;20519;-84
2022/03/10 10:00:13;;;;;;;23.10;17.20;;;12.60;99.90;;;;;;5073907;28;20192;-80
2022/03/10 10:02:40;;;;;;;22.33;16.13;;;12.80;99.90;;;;;;5073360;28;20290;-84
2022/03/10 10:05:21;;;;;;;21.20;16.13;;;12.90;99.90;;;;;;5073760;28;20221;-80
2022/03/10 10:08:06;;;;;;;21.35;17.52;;;13.00;99.90;;;;;;5073392;28;20434;-83
2022/03/10 10:10:34;;;;;;;19.50;15.10;;;13.10;99.90;;;;;;5072436;28;20229;-84
2022/03/10 10:13:06;;;;;;;23.07;15.43;;;13.10;99.90;;;;;;5073964;28;20243;-88
2022/03/10 10:15:37;;;;;;;19.73;15.60;;;13.30;99.90;;;;;;5068906;28;20603;-87
2022/03/10 10:18:05;;;;;;;21.70;15.37;;;13.40;99.90;;;;;;5073788;28;20631;-86
2022/03/10 10:20:46;;;;;;;21.57;14.50;;;13.40;99.90;;;;;;5073995;28;20184;-82
2022/03/10 10:23:21;;;;;;;18.97;14.90;;;13.30;99.90;;;;;;5074801;28;20195;-75
2022/03/10 10:25:57;;;;;;;19.30;15.17;;;13.30;99.90;;;;;;5074585;28;20191;-78
2022/03/10 10:28:31;;;;;;;23.47;15.27;;;13.50;99.90;;;;;;5053819;28;20203;-82
2022/03/10 10:31:01;;;;;;;25.87;15.30;;;13.50;99.90;;;;;;5053183;28;20544;-75
2022/03/10 10:33:29;;;;;;;21.47;15.63;;;13.50;99.90;;;;;;5052950;28;20270;-84
2022/03/10 10:36:16;;;;;;;22.90;16.13;;;13.60;99.90;;;;;;5056878;28;20299;-80
2022/03/10 10:38:44;;;;;;;19.47;15.23;;;13.80;99.90;;;;;;5072314;28;20197;-81
2022/03/10 10:41:20;;;;;;;23.40;16.87;;;13.70;99.90;;;;;;5073025;28;20204;-79
2022/03/10 10:43:49;;;;;;;22.83;16.17;;;13.50;99.90;;;;;;5073059;28;20738;-76
2022/03/10 10:46:27;;;;;;;23.03;16.97;;;13.60;99.90;;;;;;5073490;28;20208;-76
2022/03/10 10:48:54;;;;;;;36.50;17.87;;;13.60;99.90;;;;;;5072899;28;20193;-79
2022/03/10 10:51:31;;;;;;;22.40;17.10;;;13.60;99.90;;;;;;5073293;28;20221;-75
2022/03/10 10:53:59;;;;;;;26.20;17.20;;;13.60;99.90;;;;;;5072786;28;20207;-82
2022/03/10 10:56:26;;;;;;;21.53;16.47;;;13.80;99.90;;;;;;5073589;28;20308;-81
2022/03/10 10:58:54;;;;;;;21.83;17.20;;;13.80;99.90;;;;;;5073213;28;20201;-84
2022/03/10 11:01:29;;;;;;;26.73;17.30;;;13.80;99.90;;;;;;5073463;28;20268;-85
2022/03/10 11:03:58;;;;;;;25.60;18.03;;;13.90;99.90;;;;;;5072601;28;20204;-79
2022/03/10 11:06:27;;;;;;;23.03;17.70;;;14.10;99.90;;;;;;5074166;28;20213;-82
2022/03/10 11:08:56;;;;;;;22.60;17.47;;;14.20;99.90;;;;;;5077457;28;20189;-76
2022/03/10 11:11:23;;;;;;;23.57;17.07;;;14.20;99.90;;;;;;5077498;28;20211;-76
2022/03/10 11:13:54;;;;;;;24.70;17.80;;;14.20;99.90;;;;;;5077397;28;20229;-82
2022/03/10 11:16:22;;;;;;;21.13;16.67;;;14.20;99.90;;;;;;5076495;28;20225;-80
2022/03/10 11:18:51;;;;;;;22.47;17.63;;;14.20;99.90;;;;;;5076902;28;20232;-77
2022/03/10 11:21:48;;;;;;;20.33;17.10;;;14.20;99.90;;;;;;5077088;28;20197;-82
2022/03/10 11:24:41;;;;;;;23.33;17.10;;;14.10;99.90;;;;;;5076889;28;20205;-75
2022/03/10 11:27:13;;;;;;;26.13;17.37;;;14.00;99.90;;;;;;5068792;28;20672;-83
2022/03/10 11:29:41;;;;;;;23.93;17.40;;;14.10;99.90;;;;;;5076828;28;20565;-76
2022/03/10 11:32:10;;;;;;;25.23;17.07;;;14.20;99.90;;;;;;5076950;28;20284;-81
2022/03/10 11:34:51;;;;;;;25.40;18.47;;;14.30;99.90;;;;;;5076651;28;20201;-84
2022/03/10 11:37:51;;;;;;;21.83;17.43;;;14.50;99.90;;;;;;5076929;28;20313;-82
2022/03/10 11:40:38;;;;;;;30.50;17.63;;;14.50;99.90;;;;;;5076945;28;20209;-84
2022/03/10 11:43:05;;;;;;;24.23;17.33;;;14.50;99.90;;;;;;5076856;28;20664;-85
2022/03/10 11:45:32;;;;;;;22.33;16.97;;;14.60;99.90;;;;;;5076600;28;20194;-76
2022/03/10 11:48:34;;;;;;;24.90;16.77;;;14.70;99.90;;;;;;5076226;28;20186;-80
2022/03/10 11:51:19;;;;;;;26.07;17.33;;;14.80;99.90;;;;;;5076665;28;20258;-78
2022/03/10 11:54:04;;;;;;;24.30;17.33;;;14.90;99.90;;;;;;5076320;28;20267;-77
2022/03/10 11:57:07;;;;;;;31.43;18.83;;;14.90;99.90;;;;;;5076710;28;20253;-80
2022/03/10 11:59:49;;;;;;;21.77;16.83;;;15.00;99.90;;;;;;5075847;28;20633;-76
2022/03/10 12:02:43;;;;;;;22.77;16.90;;;15.10;99.90;;;;;;5075898;28;20205;-76
2022/03/10 12:05:10;;;;;;;21.80;15.83;;;15.00;99.90;;;;;;5075792;28;20582;-76
2022/03/10 12:07:45;;;;;;;23.00;16.23;;;15.00;99.90;;;;;;5076217;28;20206;-79
2022/03/10 12:10:17;;;;;;;23.57;16.83;;;15.10;99.90;;;;;;5075885;28;20229;-76
2022/03/10 12:12:45;;;;;;;24.63;17.83;;;15.10;99.90;;;;;;5075521;28;20435;-81
2022/03/10 12:15:42;;;;;;;23.57;15.67;;;15.40;99.90;;;;;;5076197;28;20232;-75
2022/03/10 12:18:18;;;;;;;21.10;15.57;;;15.60;99.90;;;;;;5074766;28;20226;-77
2022/03/10 12:20:46;;;;;;;24.67;16.33;;;15.60;99.90;;;;;;5076145;28;20536;-83
2022/03/10 12:23:15;;;;;;;19.57;15.03;;;15.70;99.90;;;;;;5075745;28;20206;-78
2022/03/10 12:25:44;;;;;;;20.33;15.00;;;15.70;99.90;;;;;;5075812;28;20186;-78
2022/03/10 12:28:20;;;;;;;22.13;15.57;;;15.80;99.90;;;;;;5075637;28;20209;-78
2022/03/10 12:30:49;;;;;;;21.40;16.00;;;15.80;99.90;;;;;;5075143;28;20198;-77
2022/03/10 12:33:16;;;;;;;19.53;15.40;;;15.80;99.90;;;;;;5075349;28;20225;-78
2022/03/10 12:35:43;;;;;;;24.03;15.57;;;15.80;99.90;;;;;;5075342;28;20612;-77
2022/03/10 12:38:10;;;;;;;19.03;15.73;;;16.00;99.90;;;;;;5075210;28;20239;-77
2022/03/10 12:40:39;;;;;;;21.77;14.53;;;16.00;99.90;;;;;;5075276;28;20236;-76
2022/03/10 12:43:07;;;;;;;27.87;14.87;;;16.10;99.90;;;;;;5075587;28;20204;-79
2022/03/10 12:45:44;;;;;;;23.70;15.57;;;16.20;99.90;;;;;;5074908;28;20558;-81
2022/03/10 12:48:16;;;;;;;19.20;14.83;;;16.20;99.90;;;;;;5075153;28;20307;-76